Time;durP1;ratioP1;P1;durP2;ratioP2;P2;SDS_P1;SDS_P2;PMS_P1;PMS_P2;Temp;Humidity;BMP_temperature;BMP_pressure;BME280_temperature;BME280_humidity;BME280_pressure;Samples;Min_cycle;Max_cycle;Signal;HPM_P1;HPM_P2
2022/04/07 04:11:03;;;;;;;3.42;1.08;;;;;;;10.05;76.63;98519.75;6244588;23;20343;-66
2022/04/07 10:44:29;;;;;;;1.58;0.22;;;;;;;12.47;68.40;97755.19;6127144;23;20498;-67
2022/04/07 12:29:41;;;;;;;1.17;0.28;;;;;;;10.40;79.19;97783.66;5986059;23;20132;-68
2022/04/07 14:36:56;;;;;;;4.45;0.85;;;;;;;17.34;28.27;97932.81;6150299;23;20476;-67
2022/04/07 15:28:21;;;;;;;9.10;5.55;;;;;;;15.31;28.63;97950.38;6186699;23;20024;-67
2022/04/07 15:45:59;;;;;;;4.57;1.05;;;;;;;14.75;28.03;97975.94;6095013;23;20026;-68
2022/04/07 16:44:35;;;;;;;9.52;2.15;;;;;;;12.72;31.66;98036.59;6011494;23;20022;-69
2022/04/07 16:51:23;;;;;;;5.00;1.30;;;;;;;12.86;29.46;98052.72;6080299;23;20029;-69
2022/04/07 17:04:18;;;;;;;9.85;3.05;;;;;;;12.88;27.85;98058.66;6092909;23;20406;-69
2022/04/07 17:07:50;;;;;;;4.95;1.60;;;;;;;12.90;27.72;98073.25;6114602;23;20072;-70
2022/04/07 17:11:13;;;;;;;8.77;3.03;;;;;;;12.55;27.64;98110.88;6119417;23;20024;-70
2022/04/07 17:17:27;;;;;;;10.35;2.58;;;;;;;12.37;27.50;98118.75;6244208;22;20031;-69
2022/04/07 17:21:17;;;;;;;7.03;2.22;;;;;;;12.14;27.93;98104.44;6249734;23;20039;-70
2022/04/07 18:11:30;;;;;;;5.63;1.42;;;;;;;11.33;28.41;98234.19;5983539;23;20083;-67
2022/04/07 18:23:22;;;;;;;4.03;1.73;;;;;;;11.15;29.38;98262.00;6192448;23;20020;-67
2022/04/07 18:26:39;;;;;;;5.22;1.20;;;;;;;11.12;29.25;98278.78;6210188;23;20511;-67
2022/04/07 18:38:55;;;;;;;5.97;0.88;;;;;;;11.02;30.41;98298.06;6199263;23;20032;-67
2022/04/07 18:58:08;;;;;;;7.93;1.35;;;;;;;10.79;31.94;98355.84;5149867;27;20214;-63
2022/04/07 19:01:12;;;;;;;5.93;1.63;;;;;;;10.71;32.75;98347.84;5129979;28;20054;-63
2022/04/07 19:04:17;;;;;;;7.40;1.52;;;;;;;10.62;33.23;98359.91;5130137;28;20100;-63
2022/04/07 19:07:21;;;;;;;6.38;1.30;;;;;;;10.60;33.94;98369.69;5109259;28;20101;-63
2022/04/07 19:10:26;;;;;;;7.28;1.33;;;;;;;10.52;34.08;98358.25;5121032;28;20038;-64
2022/04/07 19:13:30;;;;;;;7.28;1.63;;;;;;;10.44;34.77;98370.19;5129997;28;20471;-63
2022/04/07 19:16:33;;;;;;;5.45;1.38;;;;;;;10.52;34.60;98374.75;5129719;28;20038;-64
2022/04/07 19:19:36;;;;;;;4.82;1.60;;;;;;;10.46;34.21;98385.72;5129626;28;20427;-63
2022/04/07 19:22:40;;;;;;;;;;;;;;;10.42;34.53;98387.78;5129949;28;20502;-63
2022/04/07 19:25:43;;;;;;;4.95;1.55;;;;;;;10.38;34.34;98396.00;5129474;28;19923;-63
2022/04/07 19:28:46;;;;;;;9.98;2.50;;;;;;;10.38;34.39;98412.50;5129468;28;20042;-64
2022/04/07 19:31:51;;;;;;;5.22;1.13;;;;;;;10.36;34.35;98427.47;5129175;28;20125;-62
2022/04/07 19:34:55;;;;;;;7.82;1.40;;;;;;;10.35;34.38;98441.50;5129586;28;20050;-63
2022/04/07 19:37:58;;;;;;;6.03;1.85;;;;;;;10.33;34.42;98435.56;5128617;28;20117;-64
2022/04/07 19:41:02;;;;;;;4.20;1.35;;;;;;;10.28;33.94;98447.38;5130064;28;20042;-63
2022/04/07 19:44:06;;;;;;;5.05;1.10;;;;;;;10.22;34.05;98438.25;5129591;28;20464;-65
2022/04/07 19:47:09;;;;;;;5.50;1.55;;;;;;;10.23;35.02;98452.94;5129032;28;20042;-64
2022/04/07 19:50:13;;;;;;;;;;;;;;;10.21;34.12;98460.06;5110182;28;20165;-63
2022/04/07 19:53:16;;;;;;;;;;;;;;;10.17;34.49;98445.63;5108778;28;20948;-63
2022/04/07 19:56:19;;;;;;;4.65;1.13;;;;;;;10.14;34.45;98470.22;5107127;28;19923;-63
2022/04/07 19:59:23;;;;;;;8.80;1.67;;;;;;;10.09;35.03;98454.13;5094216;28;20177;-63
2022/04/07 20:02:26;;;;;;;7.22;1.60;;;;;;;10.02;35.19;98471.25;5094777;28;20046;-64
2022/04/07 20:05:29;;;;;;;5.32;1.27;;;;;;;9.99;35.60;98487.16;5094591;28;20039;-65
2022/04/07 20:08:33;;;;;;;11.38;1.77;;;;;;;9.98;35.63;98469.81;5094630;28;20092;-65
2022/04/07 20:11:37;;;;;;;8.30;1.25;;;;;;;9.97;35.94;98479.44;5094891;28;20500;-64
2022/04/07 20:14:42;;;;;;;7.55;1.45;;;;;;;9.87;36.35;98502.03;5094580;28;20043;-64
2022/04/07 20:17:45;;;;;;;7.75;1.80;;;;;;;9.85;36.50;98510.94;5094803;28;20035;-64
2022/04/07 20:20:49;;;;;;;5.70;1.42;;;;;;;9.86;36.42;98486.50;5094669;28;20462;-64
2022/04/07 20:24:02;;;;;;;6.95;2.20;;;;;;;9.85;36.85;98501.31;5094782;28;20047;-65
2022/04/07 20:27:15;;;;;;;8.52;1.73;;;;;;;9.77;36.71;98508.97;5094367;28;20606;-64
2022/04/07 20:30:19;;;;;;;4.68;1.20;;;;;;;9.81;36.65;98514.78;5093906;28;20505;-64
2022/04/07 20:33:22;;;;;;;4.93;1.30;;;;;;;9.72;36.88;98529.38;5094283;28;20675;-65
2022/04/07 20:36:30;;;;;;;6.78;1.80;;;;;;;9.69;37.61;98569.59;5094276;28;20050;-65
2022/04/07 20:39:33;;;;;;;8.18;1.30;;;;;;;9.66;37.86;98511.59;5094397;28;20089;-64
2022/04/07 20:42:37;;;;;;;;;;;;;;;9.62;38.09;98531.06;5094734;28;20135;-64
2022/04/07 20:45:41;;;;;;;;;;;;;;;9.53;38.64;98533.47;5094644;28;19939;-64
2022/04/07 20:48:44;;;;;;;7.95;1.55;;;;;;;9.55;38.77;98521.13;5094283;28;19918;-64
2022/04/07 20:51:47;;;;;;;12.38;2.88;;;;;;;9.55;39.16;98543.78;5094070;28;20043;-64
2022/04/07 20:54:50;;;;;;;;;;;;;;;9.53;38.93;98525.63;5094347;28;20064;-64
2022/04/07 20:57:54;;;;;;;6.53;1.80;;;;;;;9.50;38.86;98549.34;5093547;28;20379;-64
2022/04/07 21:00:57;;;;;;;8.05;2.25;;;;;;;9.46;38.73;98547.13;5093775;28;20515;-64
2022/04/07 21:04:01;;;;;;;6.50;1.38;;;;;;;9.38;39.04;98554.72;5093600;28;20124;-64
2022/04/07 21:07:04;;;;;;;8.40;1.30;;;;;;;9.40;39.39;98568.47;5093537;28;20039;-64
2022/04/07 21:10:07;;;;;;;7.30;1.92;;;;;;;9.41;40.10;98560.53;5092522;28;20580;-64
2022/04/07 21:13:10;;;;;;;6.57;1.38;;;;;;;9.33;40.40;98578.56;5093393;28;20050;-64
2022/04/07 21:16:13;;;;;;;;;;;;;;;9.27;40.87;98602.50;5093783;28;20500;-64
2022/04/07 21:19:17;;;;;;;8.27;2.03;;;;;;;9.24;41.08;98600.13;5093270;28;19934;-64
2022/04/07 21:22:19;;;;;;;;;;;;;;;9.30;41.29;98615.31;5093657;28;20456;-64
2022/04/07 21:25:23;;;;;;;7.70;1.50;;;;;;;9.29;41.87;98611.06;5093019;28;19919;-64
2022/04/07 21:28:26;;;;;;;10.07;2.20;;;;;;;9.24;41.91;98629.66;5092395;28;20372;-64
2022/04/07 21:31:29;;;;;;;7.53;2.10;;;;;;;9.25;41.75;98644.38;5093034;28;20046;-64
2022/04/07 21:34:32;;;;;;;;;;;;;;;9.18;41.75;98631.91;5093440;28;20042;-64
2022/04/07 21:37:39;;;;;;;7.03;1.60;;;;;;;9.14;42.65;98641.72;5092834;28;19935;-64
2022/04/07 21:40:42;;;;;;;9.63;1.80;;;;;;;9.15;42.19;98642.56;5092951;28;20162;-64
2022/04/07 21:43:45;;;;;;;10.80;2.13;;;;;;;9.18;42.63;98657.97;5092883;28;20135;-64
2022/04/07 21:46:48;;;;;;;;;;;;;;;9.12;42.60;98650.63;5093106;28;20119;-64
2022/04/07 21:49:51;;;;;;;6.70;1.92;;;;;;;9.06;42.90;98650.16;5092630;28;19919;-64
2022/04/07 21:52:55;;;;;;;8.23;1.58;;;;;;;9.05;42.94;98678.94;5092632;28;20408;-64
2022/04/07 21:55:58;;;;;;;;;;;;;;;9.05;43.35;98671.09;5092950;28;20047;-64
2022/04/07 21:59:03;;;;;;;9.53;1.77;;;;;;;9.04;43.22;98701.56;5092542;28;19939;-64
2022/04/07 22:02:06;;;;;;;8.50;1.58;;;;;;;9.06;43.69;98665.78;5092395;28;20050;-64
2022/04/07 22:05:09;;;;;;;9.02;1.98;;;;;;;8.95;44.03;98672.75;5092598;28;20047;-64
2022/04/07 22:08:15;;;;;;;7.45;2.58;;;;;;;8.99;43.88;98661.13;5092000;28;20161;-64
2022/04/07 22:11:18;;;;;;;9.20;2.25;;;;;;;9.01;43.81;98661.88;5092161;28;20051;-64
2022/04/07 22:14:22;;;;;;;11.30;2.20;;;;;;;8.97;44.08;98676.09;5092628;28;20558;-64
2022/04/07 22:17:25;;;;;;;9.70;1.88;;;;;;;8.95;44.46;98688.38;5092121;28;20039;-64
2022/04/07 22:20:30;;;;;;;8.10;1.67;;;;;;;8.97;44.75;98697.75;5091984;28;20054;-64
2022/04/07 22:23:33;;;;;;;11.40;2.10;;;;;;;9.00;44.70;98702.75;5092407;28;20066;-64
2022/04/07 22:26:36;;;;;;;6.30;1.90;;;;;;;8.88;45.03;98703.66;5092072;28;20051;-64
2022/04/07 22:29:39;;;;;;;;;;;;;;;8.90;45.07;98706.97;5092461;28;20127;-64
2022/04/07 22:32:46;;;;;;;7.68;1.73;;;;;;;8.81;45.31;98723.31;5092016;28;19918;-64
2022/04/07 22:35:49;;;;;;;11.07;1.98;;;;;;;8.83;45.50;98734.44;5092052;28;20039;-64
2022/04/07 22:38:52;;;;;;;;;;;;;;;8.80;45.55;98735.47;5092450;28;20047;-64
2022/04/07 22:41:55;;;;;;;9.73;2.60;;;;;;;8.79;45.97;98748.63;5092207;28;19918;-64
2022/04/07 22:45:00;;;;;;;10.55;2.35;;;;;;;8.84;45.99;98747.38;5092118;28;20051;-65
2022/04/07 22:48:03;;;;;;;10.88;3.30;;;;;;;8.75;46.59;98765.44;5091821;28;20042;-64
2022/04/07 22:51:06;;;;;;;;;;;;;;;8.74;46.95;98755.94;5092372;28;20051;-64
2022/04/07 22:54:10;;;;;;;13.63;2.03;;;;;;;8.72;46.56;98763.06;5091857;28;19919;-64
2022/04/07 22:57:14;;;;;;;15.55;2.17;;;;;;;8.73;46.93;98765.53;5091776;28;20055;-64
2022/04/07 23:00:17;;;;;;;13.00;2.38;;;;;;;8.74;46.92;98795.91;5091734;28;20085;-64
2022/04/07 23:03:20;;;;;;;10.32;2.33;;;;;;;8.79;46.98;98785.13;5091703;28;20086;-64
2022/04/07 23:06:23;;;;;;;;;;;;;;;8.73;47.11;98843.72;5092064;28;20161;-64
2022/04/07 23:09:26;;;;;;;10.75;2.15;;;;;;;8.69;47.37;98813.63;5091624;28;20450;-64
2022/04/07 23:12:30;;;;;;;8.55;1.90;;;;;;;8.62;47.91;98817.63;5091549;28;20089;-64
2022/04/07 23:15:33;;;;;;;12.63;2.03;;;;;;;8.69;47.65;98812.78;5091683;28;20043;-64
2022/04/07 23:18:36;;;;;;;9.43;2.83;;;;;;;8.64;47.71;98794.03;5091614;28;20047;-64
2022/04/07 23:21:40;;;;;;;10.60;2.47;;;;;;;8.57;48.55;98809.28;5091543;28;20047;-64
2022/04/07 23:24:43;;;;;;;;;;;;;;;8.65;48.17;98811.31;5091930;28;20039;-64
2022/04/07 23:27:46;;;;;;;14.90;3.10;;;;;;;8.55;48.70;98811.16;5091403;28;19946;-64
2022/04/07 23:30:50;;;;;;;7.78;1.65;;;;;;;8.55;48.62;98822.44;5091519;28;20093;-64
2022/04/07 23:33:54;;;;;;;9.05;2.05;;;;;;;8.53;48.35;98803.47;5093845;28;20039;-64
2022/04/07 23:36:58;;;;;;;9.60;2.33;;;;;;;8.59;48.90;98803.03;5095337;28;20424;-64
2022/04/07 23:40:01;;;;;;;;;;;;;;;8.53;48.51;98852.13;5095655;28;20097;-64
2022/04/07 23:43:04;;;;;;;12.10;2.35;;;;;;;8.57;48.46;98833.56;5095214;28;19937;-64
2022/04/07 23:46:13;;;;;;;;;;;;;;;8.51;48.87;98873.06;5095435;28;20047;-64
2022/04/07 23:49:16;;;;;;;9.60;2.35;;;;;;;7.56;58.24;98922.88;5095077;28;19923;-64
2022/04/07 23:52:19;;;;;;;8.15;1.52;;;;;;;6.68;66.77;98936.25;5094939;28;20047;-64
2022/04/07 23:55:23;;;;;;;6.13;1.50;;;;;;;5.93;70.08;98942.50;5094948;28;20059;-64
2022/04/07 23:58:26;;;;;;;5.03;1.27;;;;;;;6.04;71.19;98935.75;5094887;28;20047;-64
